createdAt,value
2022-09-09T00:01:55.224Z,4.68
2022-09-09T00:04:01.155Z,4.50
2022-09-09T00:06:09.683Z,5.00
2022-09-09T00:08:19.423Z,4.82
2022-09-09T00:10:28.738Z,4.93
2022-09-09T00:12:48.660Z,4.70
2022-09-09T00:14:55.777Z,5.07
2022-09-09T00:17:04.020Z,5.07
2022-09-09T00:19:13.957Z,4.60
2022-09-09T00:21:16.432Z,4.68
2022-09-09T00:23:25.032Z,4.55
2022-09-09T00:25:34.878Z,4.35
2022-09-09T00:27:42.513Z,4.43
2022-09-09T00:31:46.673Z,4.22
2022-09-09T00:33:50.411Z,4.55
2022-09-09T00:35:56.518Z,4.32
2022-09-09T00:38:04.226Z,4.32
2022-09-09T00:40:17.035Z,4.28
2022-09-09T00:42:24.330Z,4.00
2022-09-09T00:44:31.855Z,3.85
2022-09-09T00:46:50.717Z,3.88
2022-09-09T00:49:00.949Z,4.18
2022-09-09T00:51:09.461Z,4.25
2022-09-09T00:53:25.196Z,4.18
2022-09-09T00:55:34.775Z,4.68
2022-09-09T00:57:37.712Z,4.20
2022-09-09T00:59:47.649Z,4.47
2022-09-09T01:01:49.771Z,4.28
2022-09-09T01:03:55.141Z,3.83
2022-09-09T01:06:03.283Z,4.65
2022-09-09T01:08:14.434Z,4.90
2022-09-09T01:10:27.164Z,4.30
2022-09-09T01:12:41.824Z,4.78
2022-09-09T01:14:48.131Z,5.03
2022-09-09T01:16:50.218Z,4.28
2022-09-09T01:18:55.518Z,4.20
2022-09-09T01:21:05.324Z,4.57
2022-09-09T01:23:30.874Z,4.00
2022-09-09T01:26:18.514Z,3.90
2022-09-09T01:28:23.694Z,3.70
2022-09-09T01:30:26.071Z,3.72
2022-09-09T01:32:42.984Z,3.88
2022-09-09T01:34:44.574Z,3.30
2022-09-09T01:36:52.698Z,3.78
2022-09-09T01:38:54.333Z,3.65
2022-09-09T01:40:57.155Z,3.60
2022-09-09T01:42:58.988Z,3.45
2022-09-09T01:45:00.454Z,3.58
2022-09-09T01:47:02.179Z,3.63
2022-09-09T01:49:07.450Z,4.00
2022-09-09T01:51:09.237Z,3.65
2022-09-09T01:53:11.962Z,4.25
2022-09-09T01:55:14.086Z,3.53
2022-09-09T01:57:23.502Z,3.90
2022-09-09T01:59:48.933Z,4.10
2022-09-09T02:02:05.048Z,4.80
2022-09-09T02:04:19.297Z,4.35
2022-09-09T02:06:28.490Z,4.60
2022-09-09T02:08:39.411Z,4.75
2022-09-09T02:10:46.604Z,5.20
2022-09-09T02:12:54.005Z,4.75
2022-09-09T02:15:00.114Z,5.13
2022-09-09T02:17:08.708Z,4.78
2022-09-09T02:19:13.799Z,4.20
2022-09-09T02:21:16.621Z,4.20
2022-09-09T02:23:18.599Z,4.30
2022-09-09T02:25:23.427Z,4.45
2022-09-09T02:27:24.942Z,4.30
2022-09-09T02:29:31.354Z,4.60
2022-09-09T02:31:35.093Z,5.00
2022-09-09T02:33:40.909Z,4.00
2022-09-09T02:35:43.915Z,4.75
2022-09-09T02:37:46.098Z,4.28
2022-09-09T02:39:47.854Z,4.30
2022-09-09T02:41:49.321Z,3.95
2022-09-09T02:43:50.791Z,3.90
2022-09-09T02:46:03.759Z,3.88
2022-09-09T02:48:12.080Z,4.63
2022-09-09T02:50:17.042Z,4.38
2022-09-09T02:52:21.689Z,4.00
2022-09-09T02:54:28.147Z,4.50
2022-09-09T02:56:34.804Z,3.88
2022-09-09T02:58:37.442Z,4.35
2022-09-09T03:00:40.304Z,4.28
2022-09-09T03:02:43.168Z,4.63
2022-09-09T03:04:44.813Z,4.50
2022-09-09T03:06:46.233Z,4.32
2022-09-09T03:08:49.376Z,4.20
2022-09-09T03:10:51.256Z,4.30
2022-09-09T03:12:52.711Z,4.40
2022-09-09T03:14:54.166Z,4.30
2022-09-09T03:16:55.693Z,5.10
2022-09-09T03:18:58.476Z,4.38
2022-09-09T03:20:59.917Z,4.10
2022-09-09T03:23:01.482Z,4.35
2022-09-09T03:25:03.199Z,4.30
2022-09-09T03:27:04.716Z,4.72
2022-09-09T03:29:06.192Z,5.10
2022-09-09T03:31:07.806Z,4.68
2022-09-09T03:33:09.269Z,4.43
2022-09-09T03:35:12.119Z,4.35
2022-09-09T03:37:13.582Z,4.47
2022-09-09T03:39:15.102Z,4.20
2022-09-09T03:41:16.549Z,4.22
2022-09-09T03:43:18.031Z,4.43
2022-09-09T03:45:19.748Z,4.60
2022-09-09T03:47:21.917Z,4.90
2022-09-09T03:49:23.366Z,4.32
2022-09-09T03:51:26.158Z,4.13
2022-09-09T03:53:28.325Z,4.57
2022-09-09T03:55:29.749Z,4.65
2022-09-09T03:57:31.220Z,4.28
2022-09-09T03:59:32.836Z,4.60
2022-09-09T04:01:34.307Z,4.22
2022-09-09T04:03:35.834Z,4.80
2022-09-09T04:05:37.378Z,4.70
2022-09-09T04:07:40.152Z,4.82
2022-09-09T04:09:41.564Z,5.50
2022-09-09T04:11:43.034Z,4.82
2022-09-09T04:13:44.726Z,5.05
2022-09-09T04:15:52.258Z,4.90
2022-09-09T04:17:53.777Z,4.55
2022-09-09T04:19:55.236Z,4.40
2022-09-09T04:21:56.696Z,4.93
2022-09-09T04:23:59.516Z,4.38
2022-09-09T04:26:02.539Z,4.35
2022-09-09T04:28:03.953Z,4.90
2022-09-09T04:30:06.096Z,4.57
2022-09-09T04:32:07.594Z,4.15
2022-09-09T04:34:09.289Z,4.70
2022-09-09T04:36:10.814Z,4.55
2022-09-09T04:38:12.321Z,4.70
2022-09-09T04:40:15.314Z,4.95
2022-09-09T04:42:17.098Z,5.13
2022-09-09T04:44:18.563Z,4.70
2022-09-09T04:46:20.204Z,5.00
2022-09-09T04:48:22.298Z,4.63
2022-09-09T04:50:23.808Z,4.45
2022-09-09T04:52:25.319Z,3.95
2022-09-09T04:54:26.808Z,3.97
2022-09-09T04:56:29.625Z,4.43
2022-09-09T04:58:31.185Z,4.28
2022-09-09T05:00:32.758Z,4.35
2022-09-09T05:02:38.239Z,4.25
2022-09-09T05:04:39.750Z,4.00
2022-09-09T05:06:41.217Z,3.88
2022-09-09T05:08:44.457Z,4.07
2022-09-09T05:10:45.914Z,3.70
2022-09-09T05:12:54.711Z,4.53
2022-09-09T05:14:56.185Z,3.88
2022-09-09T05:16:57.651Z,3.83
2022-09-09T05:18:59.142Z,4.05
2022-09-09T05:21:00.666Z,3.83
2022-09-09T05:23:02.141Z,4.05
2022-09-09T05:25:04.197Z,3.65
2022-09-09T05:27:06.027Z,3.83
2022-09-09T05:29:08.871Z,3.60
2022-09-09T05:31:12.109Z,3.65
2022-09-09T05:33:13.622Z,2.60
2022-09-09T05:35:15.307Z,3.17
2022-09-09T05:37:17.040Z,3.00
2022-09-09T05:39:18.583Z,2.63
2022-09-09T05:41:20.754Z,2.42
2022-09-09T05:43:22.264Z,2.70
2022-09-09T05:45:25.110Z,2.75
2022-09-09T05:47:26.562Z,3.00
2022-09-09T05:49:28.094Z,2.72
2022-09-09T05:51:30.315Z,2.67
2022-09-09T05:53:32.289Z,2.75
2022-09-09T05:55:33.735Z,3.30
2022-09-09T05:57:35.168Z,3.35
2022-09-09T05:59:36.621Z,3.30
2022-09-09T06:01:40.011Z,3.30
2022-09-09T06:03:44.055Z,2.63
2022-09-09T06:05:45.525Z,3.00
2022-09-09T06:07:47.025Z,3.03
2022-09-09T06:09:48.453Z,3.45
2022-09-09T06:11:49.898Z,3.40
2022-09-09T06:13:51.913Z,2.90
2022-09-09T06:15:53.531Z,3.13
2022-09-09T06:17:56.746Z,3.10
2022-09-09T06:19:58.241Z,3.13
2022-09-09T06:21:59.716Z,3.45
2022-09-09T06:24:01.549Z,3.28
2022-09-09T06:26:05.504Z,2.95
2022-09-09T06:28:06.967Z,3.00
2022-09-09T06:30:09.685Z,3.15
2022-09-09T06:32:11.188Z,2.70
2022-09-09T06:34:14.024Z,2.63
2022-09-09T06:36:17.565Z,3.42
2022-09-09T06:38:19.321Z,3.10
2022-09-09T06:40:20.856Z,2.88
2022-09-09T06:42:22.333Z,3.15
2022-09-09T06:44:23.852Z,3.10
2022-09-09T06:46:27.552Z,3.28
2022-09-09T06:48:29.821Z,2.67
2022-09-09T06:50:32.677Z,2.50
2022-09-09T06:52:34.154Z,3.35
2022-09-09T06:54:35.608Z,3.45
2022-09-09T06:56:38.317Z,2.90
2022-09-09T06:58:41.374Z,2.50
2022-09-09T07:00:42.861Z,2.78
2022-09-09T07:02:44.432Z,2.75
2022-09-09T07:04:45.891Z,3.08
2022-09-09T07:06:48.735Z,2.90
2022-09-09T07:08:56.163Z,2.97
2022-09-09T07:11:03.430Z,2.80
2022-09-09T07:13:04.893Z,3.00
2022-09-09T07:15:07.152Z,2.20
2022-09-09T07:17:08.624Z,2.50
2022-09-09T07:19:10.453Z,2.75
2022-09-09T07:21:13.537Z,2.30
2022-09-09T07:23:16.331Z,2.88
2022-09-09T07:25:17.764Z,2.70
2022-09-09T07:27:19.247Z,2.83
2022-09-09T07:29:21.288Z,2.72
2022-09-09T07:31:24.955Z,2.75
2022-09-09T07:33:27.020Z,2.30
2022-09-09T07:35:28.950Z,2.75
2022-09-09T07:37:30.552Z,2.33
2022-09-09T07:39:33.437Z,2.75
2022-09-09T07:41:38.042Z,2.50
2022-09-09T07:43:40.270Z,2.00
2022-09-09T07:45:42.134Z,2.28
2022-09-09T07:47:43.638Z,1.80
2022-09-09T07:49:45.115Z,1.65
2022-09-09T07:51:47.876Z,2.35
2022-09-09T07:53:52.938Z,2.00
2022-09-09T07:55:55.746Z,2.28
2022-09-09T07:57:57.242Z,1.92
2022-09-09T07:59:58.910Z,2.40
2022-09-09T08:02:00.431Z,1.95
2022-09-09T08:04:04.084Z,2.17
2022-09-09T08:06:08.330Z,2.70
2022-09-09T08:08:09.785Z,2.33
2022-09-09T08:10:11.471Z,2.53
2022-09-09T08:12:14.305Z,2.15
2022-09-09T08:14:15.964Z,2.25
2022-09-09T08:16:19.683Z,2.13
2022-09-09T08:18:21.167Z,2.17
2022-09-09T08:20:22.679Z,2.00
2022-09-09T08:22:24.147Z,2.30
2022-09-09T08:24:25.636Z,2.92
2022-09-09T08:26:28.748Z,2.00
2022-09-09T08:28:31.950Z,1.98
2022-09-09T08:30:33.414Z,2.30
2022-09-09T08:32:34.878Z,2.47
2022-09-09T08:34:41.189Z,2.10
2022-09-09T08:36:45.229Z,2.40
2022-09-09T08:38:49.020Z,2.42
2022-09-09T08:40:55.774Z,2.38
2022-09-09T08:43:02.925Z,2.42
2022-09-09T08:45:20.943Z,2.45
2022-09-09T08:47:33.865Z,2.10
2022-09-09T08:49:50.337Z,1.73
2022-09-09T08:51:52.417Z,1.80
2022-09-09T08:53:59.667Z,1.88
2022-09-09T08:58:11.325Z,1.85
2022-09-09T09:00:15.047Z,2.15
2022-09-09T09:02:21.546Z,1.90
2022-09-09T09:04:39.167Z,2.00
2022-09-09T09:06:50.912Z,1.80
2022-09-09T09:09:01.856Z,1.90
2022-09-09T09:11:03.376Z,1.85
2022-09-09T09:13:08.725Z,2.33
2022-09-09T09:15:18.887Z,2.13
2022-09-09T09:17:24.362Z,2.30
2022-09-09T09:19:27.525Z,2.20
2022-09-09T09:21:37.439Z,2.25
2022-09-09T09:23:45.591Z,2.10
2022-09-09T09:25:47.176Z,1.80
2022-09-09T09:27:58.080Z,1.60
2022-09-09T09:32:27.072Z,1.70
2022-09-09T09:34:28.535Z,2.10
2022-09-09T09:36:36.063Z,1.95
2022-09-09T09:41:00.449Z,1.80
2022-09-09T09:43:02.264Z,2.35
2022-09-09T09:45:09.561Z,1.60
2022-09-09T09:47:14.102Z,2.10
2022-09-09T09:49:16.981Z,1.98
2022-09-09T09:51:21.786Z,1.80
2022-09-09T09:53:26.667Z,1.80
2022-09-09T09:55:30.567Z,1.58
2022-09-09T09:57:33.142Z,2.10
2022-09-09T09:59:40.027Z,2.30
2022-09-09T10:03:52.714Z,1.90
2022-09-09T10:05:55.837Z,1.50
2022-09-09T10:08:11.761Z,1.67
2022-09-09T10:10:16.914Z,2.00
2022-09-09T10:12:33.265Z,6.50
2022-09-09T10:14:43.237Z,2.78
2022-09-09T10:17:00.327Z,1.92
2022-09-09T10:19:05.066Z,1.70
2022-09-09T10:21:21.590Z,2.15
2022-09-09T10:23:38.311Z,1.50
2022-09-09T10:25:56.911Z,1.83
2022-09-09T10:28:19.424Z,2.20
2022-09-09T10:30:23.376Z,2.53
2022-09-09T10:32:39.043Z,1.83
2022-09-09T10:34:56.437Z,2.00
2022-09-09T10:37:00.268Z,2.20
2022-09-09T10:39:05.799Z,2.50
2022-09-09T10:41:16.428Z,2.08
2022-09-09T10:43:40.240Z,1.65
2022-09-09T10:45:52.473Z,1.60
2022-09-09T10:48:11.720Z,1.50
2022-09-09T10:50:57.213Z,1.65
2022-09-09T10:53:03.337Z,2.00
2022-09-09T10:55:13.673Z,2.38
2022-09-09T10:57:23.603Z,2.35
2022-09-09T10:59:28.148Z,1.70
2022-09-09T11:01:37.447Z,1.60
2022-09-09T11:03:41.494Z,2.38
2022-09-09T11:05:50.645Z,1.23
2022-09-09T11:07:59.280Z,1.20
2022-09-09T11:10:05.736Z,1.80
2022-09-09T11:12:15.497Z,1.65
2022-09-09T11:14:22.157Z,1.70
2022-09-09T11:16:29.807Z,1.90
2022-09-09T11:18:39.085Z,1.58
2022-09-09T11:20:41.297Z,1.70
2022-09-09T11:22:49.621Z,1.20
2022-09-09T11:24:57.761Z,2.20
2022-09-09T11:27:07.974Z,1.65
2022-09-09T11:29:30.545Z,2.17
2022-09-09T11:31:44.796Z,2.03
2022-09-09T11:34:05.665Z,2.35
2022-09-09T11:36:24.920Z,2.00
2022-09-09T11:38:28.017Z,1.55
2022-09-09T11:40:33.045Z,2.00
2022-09-09T11:42:34.685Z,2.42
2022-09-09T11:46:42.978Z,1.30
2022-09-09T11:48:46.025Z,1.40
2022-09-09T11:50:58.801Z,1.30
2022-09-09T11:53:07.246Z,1.40
2022-09-09T11:55:24.923Z,1.45
2022-09-09T11:57:33.538Z,1.35
2022-09-09T11:59:36.036Z,2.28
2022-09-09T12:01:43.637Z,2.40
2022-09-09T12:03:48.182Z,1.70
2022-09-09T12:05:52.078Z,2.08
2022-09-09T12:07:58.045Z,2.20
2022-09-09T12:10:02.090Z,1.73
2022-09-09T12:12:08.391Z,1.40
2022-09-09T12:14:21.476Z,1.60
2022-09-09T12:16:34.250Z,1.90
2022-09-09T12:18:37.534Z,1.50
2022-09-09T12:20:40.003Z,1.45
2022-09-09T12:22:53.136Z,1.73
2022-09-09T12:25:03.447Z,1.15
2022-09-09T12:27:13.461Z,1.58
2022-09-09T12:29:27.819Z,1.30
2022-09-09T12:31:35.572Z,2.00
2022-09-09T12:33:39.224Z,1.10
2022-09-09T12:35:44.068Z,1.30
2022-09-09T12:37:51.861Z,1.70
2022-09-09T12:39:56.917Z,1.40
2022-09-09T12:41:58.557Z,1.85
2022-09-09T12:44:05.422Z,2.38
2022-09-09T12:46:19.066Z,2.03
2022-09-09T12:48:21.269Z,1.63
2022-09-09T12:50:26.467Z,1.42
2022-09-09T12:52:31.233Z,2.08
2022-09-09T12:54:34.428Z,2.03
2022-09-09T12:56:36.940Z,1.92
2022-09-09T12:58:39.376Z,2.17
2022-09-09T13:00:50.557Z,1.42
2022-09-09T13:02:55.476Z,1.80
2022-09-09T13:05:07.724Z,1.48
2022-09-09T13:07:09.418Z,1.92
2022-09-09T13:09:10.920Z,2.20
2022-09-09T13:11:17.710Z,2.25
2022-09-09T13:13:23.042Z,2.47
2022-09-09T13:15:26.978Z,2.65
2022-09-09T13:17:28.615Z,1.83
2022-09-09T13:19:36.250Z,1.80
2022-09-09T13:21:39.991Z,1.45
2022-09-09T13:23:42.110Z,1.20
2022-09-09T13:25:54.475Z,1.23
2022-09-09T13:28:01.434Z,1.40
2022-09-09T13:30:21.318Z,2.10
2022-09-09T13:32:23.274Z,1.98
2022-09-09T13:34:29.235Z,1.85
2022-09-09T13:36:33.959Z,1.90
2022-09-09T13:38:39.039Z,2.00
2022-09-09T13:40:40.706Z,1.58
2022-09-09T13:42:42.992Z,1.75
2022-09-09T13:44:47.415Z,2.05
2022-09-09T13:46:48.880Z,2.00
2022-09-09T13:48:55.388Z,1.45
2022-09-09T13:50:59.203Z,2.80
2022-09-09T13:53:02.016Z,2.40
2022-09-09T13:55:03.769Z,1.70
2022-09-09T13:57:05.658Z,1.60
2022-09-09T13:59:11.569Z,1.60
2022-09-09T14:01:14.194Z,1.73
2022-09-09T14:03:15.663Z,1.42
2022-09-09T14:05:17.682Z,1.92
2022-09-09T14:07:19.667Z,1.77
2022-09-09T14:09:22.531Z,1.60
2022-09-09T14:11:24.066Z,1.90
2022-09-09T14:13:25.680Z,2.10
2022-09-09T14:15:27.193Z,1.80
2022-09-09T14:17:28.642Z,1.80
2022-09-09T14:19:30.173Z,1.50
2022-09-09T14:21:31.618Z,1.50
2022-09-09T14:23:33.087Z,1.75
2022-09-09T14:25:35.892Z,1.30
2022-09-09T14:27:37.354Z,1.40
2022-09-09T14:29:38.802Z,1.30
2022-09-09T14:31:40.264Z,1.92
2022-09-09T14:33:41.959Z,2.50
2022-09-09T14:35:44.097Z,2.25
2022-09-09T14:37:45.706Z,2.10
2022-09-09T14:39:47.189Z,1.83
2022-09-09T14:41:50.120Z,1.60
2022-09-09T14:43:51.911Z,2.28
2022-09-09T14:45:53.555Z,2.55
2022-09-09T14:47:55.065Z,2.45
2022-09-09T14:49:56.590Z,1.98
2022-09-09T14:51:58.168Z,1.70
2022-09-09T14:54:00.683Z,1.50
2022-09-09T14:56:06.989Z,1.55
2022-09-09T14:58:09.815Z,1.65
2022-09-09T15:00:11.750Z,1.50
2022-09-09T15:02:13.298Z,1.40
2022-09-09T15:04:15.055Z,1.30
2022-09-09T15:06:16.548Z,1.20
2022-09-09T15:08:18.041Z,1.00
2022-09-09T15:10:19.520Z,1.23
2022-09-09T15:12:21.087Z,1.00
2022-09-09T15:14:25.875Z,1.00
2022-09-09T15:16:29.138Z,1.23
2022-09-09T15:18:30.593Z,1.20
2022-09-09T15:20:32.040Z,1.10
2022-09-09T15:22:33.910Z,1.20
2022-09-09T15:24:35.985Z,1.00
2022-09-09T15:26:38.542Z,1.00
2022-09-09T15:28:39.983Z,0.93
2022-09-09T15:30:42.855Z,1.20
2022-09-09T15:32:44.343Z,1.23
2022-09-09T15:34:45.823Z,0.90
2022-09-09T15:36:47.351Z,1.00
2022-09-09T15:38:49.407Z,1.30
2022-09-09T15:40:54.799Z,1.45
2022-09-09T15:42:56.237Z,1.20
2022-09-09T15:44:57.770Z,1.20
2022-09-09T15:47:00.602Z,1.00
2022-09-09T15:49:05.627Z,1.65
2022-09-09T15:51:19.496Z,1.23
2022-09-09T15:53:28.525Z,1.17
2022-09-09T15:55:34.872Z,1.38
2022-09-09T15:57:36.425Z,1.35
2022-09-09T15:59:37.906Z,1.60
2022-09-09T16:01:39.750Z,1.23
2022-09-09T16:03:45.558Z,1.52
2022-09-09T16:05:51.790Z,2.20
2022-09-09T16:07:53.237Z,1.70
2022-09-09T16:09:54.996Z,1.83
2022-09-09T16:11:57.631Z,2.22
2022-09-09T16:14:00.488Z,1.80
2022-09-09T16:16:02.664Z,1.67
2022-09-09T16:18:04.359Z,1.85
2022-09-09T16:20:08.029Z,1.40
2022-09-09T16:22:09.529Z,1.27
2022-09-09T16:24:12.829Z,1.33
2022-09-09T16:26:16.060Z,2.03
2022-09-09T16:28:17.567Z,1.77
2022-09-09T16:30:19.057Z,1.70
2022-09-09T16:32:20.508Z,1.60
2022-09-09T16:34:22.956Z,1.58
2022-09-09T16:36:27.194Z,1.58
2022-09-09T16:38:28.612Z,1.10
2022-09-09T16:40:30.280Z,1.20
2022-09-09T16:42:33.512Z,1.20
2022-09-09T16:44:37.949Z,1.35
2022-09-09T16:46:41.644Z,1.50
2022-09-09T16:48:44.290Z,1.40
2022-09-09T16:50:45.857Z,1.50
2022-09-09T16:52:48.716Z,1.10
2022-09-09T16:54:50.178Z,1.70
2022-09-09T16:56:51.862Z,1.95
2022-09-09T16:58:54.892Z,1.33
2022-09-09T17:00:59.323Z,1.20
2022-09-09T17:03:00.888Z,1.33
2022-09-09T17:05:02.398Z,4.07
2022-09-09T17:07:03.935Z,1.30
2022-09-09T17:09:08.733Z,6.75
2022-09-09T17:11:14.254Z,1.30
2022-09-09T17:13:15.747Z,4.18
2022-09-09T17:15:17.420Z,6.05
2022-09-09T17:17:31.277Z,1.90
2022-09-09T17:19:34.111Z,1.58
2022-09-09T17:21:36.595Z,1.30
2022-09-09T17:23:38.187Z,1.20
2022-09-09T17:25:41.684Z,1.30
2022-09-09T17:27:43.452Z,1.15
2022-09-09T17:29:44.935Z,1.20
2022-09-09T17:31:46.448Z,1.67
2022-09-09T17:33:49.933Z,1.00
2022-09-09T17:35:51.436Z,1.95
2022-09-09T17:37:53.608Z,1.10
2022-09-09T17:39:55.091Z,1.00
2022-09-09T17:41:58.262Z,1.48
2022-09-09T17:44:00.326Z,1.20
2022-09-09T17:46:08.969Z,1.50
2022-09-09T17:48:10.586Z,1.27
2022-09-09T17:50:12.195Z,1.55
2022-09-09T17:52:13.660Z,2.22
2022-09-09T17:54:17.735Z,1.25
2022-09-09T17:56:21.762Z,1.27
2022-09-09T17:58:24.729Z,1.30
2022-09-09T18:00:26.196Z,1.50
2022-09-09T18:02:27.685Z,1.80
2022-09-09T18:04:29.187Z,1.80
2022-09-09T18:06:34.825Z,2.30
2022-09-09T18:08:37.084Z,1.02
2022-09-09T18:10:38.694Z,1.20
2022-09-09T18:12:40.182Z,1.30
2022-09-09T18:14:43.081Z,1.10
2022-09-09T18:16:45.250Z,1.88
2022-09-09T18:18:46.969Z,1.40
2022-09-09T18:20:57.776Z,1.30
2022-09-09T18:22:59.265Z,1.30
2022-09-09T18:25:00.873Z,1.20
2022-09-09T18:27:02.491Z,1.60
2022-09-09T18:29:06.755Z,1.80
2022-09-09T18:31:11.711Z,1.30
2022-09-09T18:33:13.186Z,1.50
2022-09-09T18:35:14.755Z,3.45
2022-09-09T18:37:16.243Z,1.73
2022-09-09T18:39:18.925Z,1.70
2022-09-09T18:41:22.880Z,1.33
2022-09-09T18:43:24.517Z,1.90
2022-09-09T18:45:26.415Z,1.55
2022-09-09T18:47:29.289Z,2.03
2022-09-09T18:49:30.803Z,2.25
2022-09-09T18:51:33.183Z,1.58
2022-09-09T18:53:35.355Z,1.70
2022-09-09T18:55:36.792Z,1.50
2022-09-09T18:57:38.253Z,2.92
2022-09-09T18:59:39.730Z,1.73
2022-09-09T19:01:41.781Z,2.60
2022-09-09T19:03:44.613Z,1.60
2022-09-09T19:05:46.154Z,2.17
2022-09-09T19:07:47.683Z,3.58
2022-09-09T19:09:49.187Z,2.00
2022-09-09T19:11:50.857Z,1.90
2022-09-09T19:13:53.376Z,1.60
2022-09-09T19:15:54.840Z,1.80
2022-09-09T19:17:56.314Z,2.00
2022-09-09T19:19:59.117Z,1.70
2022-09-09T19:22:01.955Z,1.50
2022-09-09T19:24:06.151Z,1.60
2022-09-09T19:26:07.809Z,1.70
2022-09-09T19:28:09.285Z,2.00
2022-09-09T19:30:11.370Z,1.92
2022-09-09T19:34:34.301Z,1.60
2022-09-09T19:36:37.713Z,1.60
2022-09-09T19:38:39.333Z,2.58
2022-09-09T19:40:40.784Z,1.65
2022-09-09T19:42:42.206Z,1.58
2022-09-09T19:44:43.850Z,1.98
2022-09-09T19:46:45.814Z,1.88
2022-09-09T19:48:47.289Z,1.20
2022-09-09T19:50:48.735Z,1.25
2022-09-09T19:52:51.546Z,1.38
2022-09-09T19:54:53.052Z,1.52
2022-09-09T19:56:54.541Z,1.40
2022-09-09T19:58:57.121Z,1.52
2022-09-09T20:01:05.702Z,1.40
2022-09-09T20:03:18.702Z,1.40
2022-09-09T20:05:21.240Z,1.23
2022-09-09T20:07:22.701Z,1.20
2022-09-09T20:09:25.556Z,1.23
2022-09-09T20:11:28.189Z,1.20
2022-09-09T20:13:30.353Z,1.55
2022-09-09T20:15:31.915Z,1.20
2022-09-09T20:17:33.427Z,1.25
2022-09-09T20:19:34.903Z,1.30
2022-09-09T20:21:37.915Z,1.15
2022-09-09T20:23:40.288Z,1.20
2022-09-09T20:25:43.137Z,1.25
2022-09-09T20:27:44.661Z,1.50
2022-09-09T20:29:46.128Z,1.35
2022-09-09T20:31:48.197Z,1.40
2022-09-09T20:33:49.702Z,1.20
2022-09-09T20:35:51.241Z,1.33
2022-09-09T20:37:52.756Z,1.45
2022-09-09T20:39:54.319Z,1.27
2022-09-09T20:41:57.102Z,1.38
2022-09-09T20:44:00.553Z,1.52
2022-09-09T20:46:02.672Z,2.63
2022-09-09T20:48:04.368Z,2.20
2022-09-09T20:50:06.360Z,1.83
2022-09-09T20:52:07.846Z,1.50
2022-09-09T20:54:11.914Z,1.23
2022-09-09T20:56:13.554Z,1.30
2022-09-09T20:58:16.536Z,1.30
2022-09-09T21:00:18.147Z,1.67
2022-09-09T21:02:19.623Z,1.50
2022-09-09T21:04:21.711Z,2.10
2022-09-09T21:06:23.296Z,3.33
2022-09-09T21:08:25.393Z,2.17
2022-09-09T21:10:26.877Z,1.42
2022-09-09T21:12:28.330Z,4.18
2022-09-09T21:14:31.120Z,1.90
2022-09-09T21:16:32.630Z,1.38
2022-09-09T21:18:34.962Z,2.20
2022-09-09T21:20:36.560Z,1.80
2022-09-09T21:22:38.044Z,1.33
2022-09-09T21:24:39.639Z,1.40
2022-09-09T21:26:41.135Z,1.55
2022-09-09T21:28:42.600Z,1.90
2022-09-09T21:30:49.789Z,1.65
2022-09-09T21:32:51.255Z,1.88
2022-09-09T21:34:52.763Z,1.95
2022-09-09T21:36:54.207Z,1.60
2022-09-09T21:38:55.987Z,1.83
2022-09-09T21:40:57.555Z,1.63
2022-09-09T21:42:58.997Z,1.90
2022-09-09T21:45:00.434Z,1.48
2022-09-09T21:47:03.713Z,1.70
2022-09-09T21:49:05.191Z,1.58
2022-09-09T21:51:08.629Z,1.85
2022-09-09T21:53:10.963Z,1.67
2022-09-09T21:55:12.392Z,1.90
2022-09-09T21:57:13.879Z,1.55
2022-09-09T21:59:15.487Z,1.67
2022-09-09T22:01:18.617Z,1.48
2022-09-09T22:03:21.548Z,1.40
2022-09-09T22:05:23.016Z,1.42
2022-09-09T22:07:24.504Z,1.48
2022-09-09T22:09:26.136Z,1.50
2022-09-09T22:11:27.645Z,1.70
2022-09-09T22:13:29.353Z,1.67
2022-09-09T22:15:31.040Z,1.80
2022-09-09T22:17:33.339Z,1.45
2022-09-09T22:19:36.137Z,1.48
2022-09-09T22:21:37.622Z,1.50
2022-09-09T22:23:39.516Z,1.48
2022-09-09T22:25:41.440Z,1.38
2022-09-09T22:27:43.004Z,1.42
2022-09-09T22:29:44.653Z,1.50
2022-09-09T22:31:46.200Z,1.48
2022-09-09T22:33:47.677Z,1.40
2022-09-09T22:35:50.471Z,1.55
2022-09-09T22:37:51.881Z,1.58
2022-09-09T22:39:53.402Z,1.30
2022-09-09T22:41:55.052Z,1.40
2022-09-09T22:43:56.516Z,1.20
2022-09-09T22:45:58.068Z,1.40
2022-09-09T22:48:00.087Z,1.40
2022-09-09T22:50:01.585Z,1.50
2022-09-09T22:52:04.427Z,1.38
2022-09-09T22:54:05.910Z,1.40
2022-09-09T22:56:12.064Z,1.50
2022-09-09T22:58:13.501Z,1.60
2022-09-09T23:00:15.635Z,1.50
2022-09-09T23:02:17.412Z,1.50
2022-09-09T23:04:18.877Z,1.52
2022-09-09T23:06:22.492Z,1.45
2022-09-09T23:08:26.745Z,1.50
2022-09-09T23:10:28.199Z,1.50
2022-09-09T23:12:29.633Z,1.35
2022-09-09T23:14:31.051Z,1.30
2022-09-09T23:16:34.114Z,1.40
2022-09-09T23:18:35.782Z,1.27
2022-09-09T23:20:37.218Z,1.70
2022-09-09T23:22:38.699Z,1.80
2022-09-09T23:24:41.499Z,1.73
2022-09-09T23:26:43.626Z,1.40
2022-09-09T23:28:45.102Z,1.60
2022-09-09T23:30:46.719Z,1.50
2022-09-09T23:32:48.851Z,1.70
2022-09-09T23:34:50.321Z,1.60
2022-09-09T23:36:51.777Z,1.80
2022-09-09T23:38:53.536Z,1.58
2022-09-09T23:40:56.749Z,1.65
2022-09-09T23:42:58.183Z,1.80
2022-09-09T23:44:59.786Z,1.50
2022-09-09T23:47:01.292Z,1.50
2022-09-09T23:49:03.101Z,1.70
2022-09-09T23:51:05.039Z,1.70
2022-09-09T23:53:06.509Z,1.58
2022-09-09T23:55:08.035Z,1.50
2022-09-09T23:57:10.984Z,1.80
2022-09-09T23:59:12.537Z,1.67
